createdAt,value
2022-08-07T00:00:41.566Z,12.91
2022-08-07T00:03:11.830Z,12.92
2022-08-07T00:05:51.068Z,12.93
2022-08-07T00:08:32.693Z,13.13
2022-08-07T00:11:00.227Z,13.19
2022-08-07T00:13:29.427Z,13.12
2022-08-07T00:16:17.415Z,13.02
2022-08-07T00:18:48.773Z,12.69
2022-08-07T00:21:57.335Z,12.63
2022-08-07T00:24:04.234Z,12.49
2022-08-07T00:26:58.864Z,12.43
2022-08-07T00:29:33.910Z,12.71
2022-08-07T00:32:07.199Z,12.86
2022-08-07T00:34:50.715Z,12.91
2022-08-07T00:37:29.432Z,12.69
2022-08-07T00:40:39.638Z,12.78
2022-08-07T00:44:00.948Z,13.01
2022-08-07T00:46:08.028Z,13.08
2022-08-07T00:48:36.254Z,12.87
2022-08-07T00:51:10.998Z,12.89
2022-08-07T00:53:50.640Z,12.86
2022-08-07T00:56:30.175Z,12.76
2022-08-07T00:59:02.096Z,12.68
2022-08-07T01:01:29.831Z,12.77
2022-08-07T01:04:12.474Z,12.90
2022-08-07T01:06:56.400Z,13.03
2022-08-07T01:10:04.969Z,13.05
2022-08-07T01:12:29.690Z,13.18
2022-08-07T01:15:11.791Z,13.18
2022-08-07T01:17:45.188Z,13.15
2022-08-07T01:20:33.548Z,13.22
2022-08-07T01:23:12.931Z,13.31
2022-08-07T01:26:05.562Z,13.29
2022-08-07T01:28:35.093Z,13.34
2022-08-07T01:31:04.894Z,13.38
2022-08-07T01:33:55.645Z,13.46
2022-08-07T01:36:33.455Z,13.50
2022-08-07T01:39:10.144Z,13.58
2022-08-07T01:41:55.045Z,13.61
2022-08-07T01:44:35.502Z,13.65
2022-08-07T01:47:14.521Z,13.71
2022-08-07T01:50:02.034Z,13.77
2022-08-07T01:52:33.299Z,13.84
2022-08-07T01:55:04.070Z,13.92
2022-08-07T01:58:06.070Z,13.97
2022-08-07T02:00:29.709Z,13.90
2022-08-07T02:03:21.209Z,13.93
2022-08-07T02:06:31.577Z,13.98
2022-08-07T02:09:04.618Z,13.92
2022-08-07T02:12:03.287Z,13.96
2022-08-07T02:14:35.961Z,13.92
2022-08-07T02:17:26.446Z,13.65
2022-08-07T02:20:04.685Z,13.26
2022-08-07T02:22:39.620Z,12.93
2022-08-07T02:26:10.225Z,13.12
2022-08-07T02:28:27.007Z,13.24
2022-08-07T02:30:57.832Z,13.41
2022-08-07T02:33:32.752Z,13.45
2022-08-07T02:36:30.820Z,13.43
2022-08-07T02:39:16.616Z,13.27
2022-08-07T02:41:47.478Z,13.18
2022-08-07T02:44:27.725Z,13.19
2022-08-07T02:47:05.682Z,13.21
2022-08-07T02:49:59.007Z,13.23
2022-08-07T02:53:03.560Z,13.38
2022-08-07T02:56:04.137Z,13.39
2022-08-07T02:58:27.294Z,13.46
2022-08-07T03:01:19.029Z,13.48
2022-08-07T03:04:12.475Z,13.51
2022-08-07T03:06:49.034Z,13.47
2022-08-07T03:09:44.659Z,13.45
2022-08-07T03:12:11.619Z,13.44
2022-08-07T03:14:54.248Z,13.46
2022-08-07T03:17:26.203Z,13.35
2022-08-07T03:19:59.062Z,13.38
2022-08-07T03:22:31.480Z,13.32
2022-08-07T03:25:10.311Z,13.25
2022-08-07T03:27:59.285Z,13.26
2022-08-07T03:30:43.320Z,13.27
2022-08-07T03:33:14.484Z,13.18
2022-08-07T03:35:50.173Z,13.15
2022-08-07T03:38:20.947Z,13.16
2022-08-07T03:40:57.835Z,13.07
2022-08-07T03:43:32.941Z,13.04
2022-08-07T03:46:10.624Z,12.94
2022-08-07T03:49:02.675Z,13.03
2022-08-07T03:51:47.389Z,13.00
2022-08-07T03:54:35.886Z,13.03
2022-08-07T03:58:33.772Z,13.02
2022-08-07T04:00:30.457Z,13.09
2022-08-07T04:03:04.257Z,13.23
2022-08-07T04:05:40.665Z,13.21
2022-08-07T04:08:18.191Z,13.29
2022-08-07T04:10:53.821Z,13.36
2022-08-07T04:14:10.607Z,13.36
2022-08-07T04:16:37.613Z,13.47
2022-08-07T04:19:16.560Z,13.57
2022-08-07T04:21:59.055Z,13.62
2022-08-07T04:24:41.163Z,13.67
2022-08-07T04:27:20.757Z,13.80
2022-08-07T04:30:02.433Z,13.83
2022-08-07T04:32:39.489Z,13.96
2022-08-07T04:35:25.287Z,13.99
2022-08-07T04:38:07.642Z,14.08
2022-08-07T04:40:51.356Z,14.13
2022-08-07T04:44:12.865Z,14.23
2022-08-07T04:46:34.766Z,14.36
2022-08-07T04:49:28.280Z,14.44
2022-08-07T04:52:27.510Z,14.49
2022-08-07T04:58:10.440Z,14.61
2022-08-07T04:58:38.905Z,14.75
2022-08-07T05:01:38.198Z,14.84
2022-08-07T05:04:50.378Z,14.88
2022-08-07T05:07:48.120Z,14.94
2022-08-07T05:10:37.874Z,14.98
2022-08-07T05:14:54.299Z,15.02
2022-08-07T05:16:23.152Z,15.09
2022-08-07T05:18:59.293Z,15.18
2022-08-07T05:21:59.813Z,15.33
2022-08-07T05:24:24.609Z,15.40
2022-08-07T05:26:59.673Z,15.53
2022-08-07T05:29:39.037Z,15.53
2022-08-07T05:32:21.311Z,15.66
2022-08-07T05:35:00.038Z,15.66
2022-08-07T05:37:32.306Z,15.77
2022-08-07T05:40:17.724Z,15.79
2022-08-07T05:42:56.013Z,15.86
2022-08-07T05:45:47.346Z,15.95
2022-08-07T05:48:15.596Z,16.01
2022-08-07T05:50:43.872Z,16.03
2022-08-07T05:54:09.345Z,16.20
2022-08-07T05:56:05.867Z,16.32
2022-08-07T05:58:37.711Z,16.31
2022-08-07T06:01:11.355Z,16.37
2022-08-07T06:03:53.398Z,16.42
2022-08-07T06:06:32.186Z,16.52
2022-08-07T06:09:15.645Z,16.64
2022-08-07T06:11:43.109Z,16.79
2022-08-07T06:14:11.499Z,16.85
2022-08-07T06:16:50.151Z,16.96
2022-08-07T06:19:52.391Z,17.02
2022-08-07T06:22:14.498Z,17.10
2022-08-07T06:25:01.013Z,17.21
2022-08-07T06:28:00.481Z,17.32
2022-08-07T06:30:31.783Z,17.44
2022-08-07T06:33:15.740Z,17.52
2022-08-07T06:35:47.646Z,17.66
2022-08-07T06:38:32.375Z,17.81
2022-08-07T06:41:02.396Z,17.86
2022-08-07T06:43:39.878Z,17.92
2022-08-07T06:46:14.525Z,18.04
2022-08-07T06:48:48.717Z,18.17
2022-08-07T06:51:31.213Z,18.17
2022-08-07T06:55:31.420Z,18.29
2022-08-07T06:56:55.853Z,18.47
2022-08-07T07:00:14.775Z,18.55
2022-08-07T07:02:53.321Z,18.70
2022-08-07T07:05:13.641Z,18.82
2022-08-07T07:08:06.727Z,18.88
2022-08-07T07:10:36.956Z,18.89
2022-08-07T07:13:55.507Z,18.99
2022-08-07T07:16:22.236Z,19.06
2022-08-07T07:18:57.564Z,19.17
2022-08-07T07:21:40.389Z,19.27
2022-08-07T07:24:17.754Z,19.33
2022-08-07T07:26:52.086Z,19.47
2022-08-07T07:29:39.812Z,19.54
2022-08-07T07:32:15.221Z,19.56
2022-08-07T07:34:49.784Z,19.70
2022-08-07T07:37:45.377Z,19.81
2022-08-07T07:40:15.295Z,19.78
2022-08-07T07:42:55.486Z,19.87
2022-08-07T07:46:39.905Z,19.78
2022-08-07T07:48:34.761Z,19.77
2022-08-07T07:51:07.863Z,20.03
2022-08-07T07:53:51.256Z,20.17
2022-08-07T07:56:30.335Z,20.14
2022-08-07T07:59:01.670Z,20.30
2022-08-07T08:02:04.061Z,20.38
2022-08-07T08:04:20.500Z,20.57
2022-08-07T08:06:55.142Z,20.65
2022-08-07T08:09:29.598Z,20.82
2022-08-07T08:12:01.693Z,20.88
2022-08-07T08:14:34.193Z,21.10
2022-08-07T08:17:41.194Z,21.23
2022-08-07T08:20:17.914Z,21.45
2022-08-07T08:23:08.222Z,21.58
2022-08-07T08:26:06.940Z,21.73
2022-08-07T08:28:39.209Z,21.76
2022-08-07T08:31:29.893Z,21.94
2022-08-07T08:34:12.394Z,21.95
2022-08-07T08:36:58.381Z,22.11
2022-08-07T08:39:38.961Z,22.10
2022-08-07T08:42:20.589Z,22.34
2022-08-07T08:45:13.298Z,22.51
2022-08-07T08:47:52.656Z,22.70
2022-08-07T08:50:39.819Z,22.95
2022-08-07T08:53:29.289Z,23.07
2022-08-07T08:56:02.705Z,23.25
2022-08-07T08:58:46.093Z,23.29
2022-08-07T09:01:44.194Z,23.56
2022-08-07T09:04:36.841Z,23.78
2022-08-07T09:07:14.572Z,23.97
2022-08-07T09:10:11.963Z,24.21
2022-08-07T09:13:07.133Z,24.51
2022-08-07T09:16:25.844Z,24.51
2022-08-07T09:19:03.448Z,24.52
2022-08-07T09:22:22.636Z,24.67
2022-08-07T09:25:17.971Z,24.68
2022-08-07T09:28:04.288Z,24.72
2022-08-07T09:30:54.723Z,24.88
2022-08-07T09:33:52.800Z,24.89
2022-08-07T09:36:35.371Z,24.80
2022-08-07T09:39:54.695Z,24.92
2022-08-07T09:42:38.229Z,24.58
2022-08-07T09:47:23.619Z,24.16
2022-08-07T09:49:59.444Z,23.95
2022-08-07T09:52:33.306Z,23.95
2022-08-07T09:55:29.063Z,24.43
2022-08-07T09:58:13.066Z,24.57
2022-08-07T10:00:56.520Z,24.71
2022-08-07T10:04:05.660Z,24.42
2022-08-07T10:07:39.887Z,24.05
2022-08-07T10:10:21.448Z,24.40
2022-08-07T10:13:54.824Z,25.06
2022-08-07T10:16:45.245Z,25.66
2022-08-07T10:19:31.188Z,25.98
2022-08-07T10:22:36.627Z,26.13
2022-08-07T10:25:24.508Z,26.21
2022-08-07T10:28:41.574Z,26.56
2022-08-07T10:31:45.284Z,26.59
2022-08-07T10:34:27.385Z,26.92
2022-08-07T10:38:00.161Z,27.09
2022-08-07T10:40:42.197Z,27.11
2022-08-07T10:43:35.498Z,27.40
2022-08-07T10:46:13.246Z,27.64
2022-08-07T10:48:49.140Z,28.00
2022-08-07T10:51:39.609Z,28.43
2022-08-07T10:54:19.939Z,28.82
2022-08-07T10:57:15.709Z,29.04
2022-08-07T11:00:39.522Z,29.29
2022-08-07T11:03:12.744Z,29.17
2022-08-07T11:05:53.055Z,28.83
2022-08-07T11:09:00.410Z,28.53
2022-08-07T11:11:40.204Z,28.09
2022-08-07T11:14:45.763Z,27.77
2022-08-07T11:17:45.189Z,27.45
2022-08-07T11:20:25.527Z,27.35
2022-08-07T11:23:03.020Z,27.74
2022-08-07T11:26:07.527Z,28.35
2022-08-07T11:28:56.765Z,29.00
2022-08-07T11:31:37.764Z,29.69
2022-08-07T11:34:22.349Z,30.33
2022-08-07T11:37:11.828Z,30.69
2022-08-07T11:40:05.016Z,30.35
2022-08-07T11:43:05.935Z,30.69
2022-08-07T11:45:40.586Z,30.40
2022-08-07T11:48:30.170Z,29.54
2022-08-07T11:51:40.815Z,30.19
2022-08-07T11:54:26.495Z,31.21
2022-08-07T11:57:59.686Z,31.82
2022-08-07T12:01:02.134Z,31.41
2022-08-07T12:04:01.737Z,31.09
2022-08-07T12:07:00.418Z,31.36
2022-08-07T12:10:15.589Z,31.12
2022-08-07T12:12:55.665Z,31.29
2022-08-07T12:16:06.018Z,31.37
2022-08-07T12:18:45.261Z,31.59
2022-08-07T12:21:55.869Z,32.10
2022-08-07T12:25:08.051Z,32.61
2022-08-07T12:28:09.688Z,32.99
2022-08-07T12:30:46.803Z,32.14
2022-08-07T12:33:28.470Z,32.62
2022-08-07T12:36:02.316Z,33.20
2022-08-07T12:38:42.513Z,33.56
2022-08-07T12:41:15.318Z,33.73
2022-08-07T12:44:02.110Z,33.01
2022-08-07T12:47:03.288Z,32.94
2022-08-07T12:49:48.683Z,33.38
2022-08-07T12:52:34.166Z,33.70
2022-08-07T12:55:18.333Z,33.56
2022-08-07T12:58:00.954Z,34.05
2022-08-07T13:01:07.841Z,34.40
2022-08-07T13:04:03.092Z,33.80
2022-08-07T13:08:12.555Z,33.81
2022-08-07T13:10:52.294Z,34.42
2022-08-07T13:14:06.387Z,34.39
2022-08-07T13:17:18.291Z,34.26
2022-08-07T13:20:13.011Z,33.17
2022-08-07T13:22:53.363Z,32.25
2022-08-07T13:25:32.421Z,32.06
2022-08-07T13:28:14.312Z,32.19
2022-08-07T13:31:01.598Z,32.59
2022-08-07T13:34:32.032Z,33.02
2022-08-07T13:36:39.654Z,33.51
2022-08-07T13:39:28.431Z,34.10
2022-08-07T13:42:21.659Z,33.83
2022-08-07T13:46:06.714Z,32.93
2022-08-07T13:48:27.356Z,31.89
2022-08-07T13:51:27.774Z,31.50
2022-08-07T13:54:01.771Z,31.82
2022-08-07T13:56:51.747Z,32.28
2022-08-07T13:59:35.578Z,33.16
2022-08-07T14:02:49.533Z,33.85
2022-08-07T14:05:23.535Z,34.36
2022-08-07T14:08:01.555Z,33.77
2022-08-07T14:10:42.473Z,33.26
2022-08-07T14:13:16.825Z,33.52
2022-08-07T14:16:03.882Z,33.96
2022-08-07T14:18:44.861Z,34.47
2022-08-07T14:22:02.853Z,34.87
2022-08-07T14:24:33.502Z,34.74
2022-08-07T14:28:09.662Z,35.03
2022-08-07T14:30:07.714Z,34.72
2022-08-07T14:32:55.274Z,34.63
2022-08-07T14:35:45.348Z,34.89
2022-08-07T14:38:26.780Z,35.03
2022-08-07T14:41:17.560Z,35.32
2022-08-07T14:44:11.560Z,35.62
2022-08-07T14:52:50.565Z,35.74
2022-08-07T14:55:27.931Z,35.57
2022-08-07T14:58:00.679Z,34.96
2022-08-07T15:00:35.051Z,34.89
2022-08-07T15:03:18.888Z,35.10
2022-08-07T15:13:06.525Z,34.90
2022-08-07T15:14:31.076Z,35.04
2022-08-07T15:17:04.581Z,34.94
2022-08-07T15:22:33.407Z,34.60
2022-08-07T15:25:18.088Z,34.88
2022-08-07T15:28:14.128Z,34.90
2022-08-07T15:31:04.722Z,35.07
2022-08-07T15:33:36.749Z,34.91
2022-08-07T15:36:08.362Z,34.54
2022-08-07T15:38:51.337Z,34.43
2022-08-07T15:42:44.417Z,34.20
2022-08-07T15:44:23.617Z,33.69
2022-08-07T15:47:08.753Z,33.32
2022-08-07T15:50:03.687Z,33.33
2022-08-07T15:53:03.031Z,33.53
2022-08-07T15:56:02.080Z,33.62
2022-08-07T15:58:52.200Z,33.72
2022-08-07T16:01:40.634Z,33.86
2022-08-07T16:04:15.623Z,33.69
2022-08-07T16:07:04.814Z,33.66
2022-08-07T16:09:53.513Z,33.31
2022-08-07T16:13:04.740Z,33.17
2022-08-07T16:15:57.294Z,33.01
2022-08-07T16:18:51.065Z,32.46
2022-08-07T16:22:02.480Z,32.35
2022-08-07T16:24:35.617Z,32.16
2022-08-07T16:27:19.471Z,31.98
2022-08-07T16:30:30.411Z,31.56
2022-08-07T16:34:02.601Z,31.07
2022-08-07T16:36:31.351Z,30.81
2022-08-07T16:39:40.683Z,30.63
2022-08-07T16:42:34.833Z,30.45
2022-08-07T16:46:40.441Z,30.12
2022-08-07T16:48:41.410Z,29.67
2022-08-07T16:52:51.251Z,29.36
2022-08-07T16:55:08.152Z,29.19
2022-08-07T16:58:33.642Z,28.96
2022-08-07T17:01:23.921Z,28.76
2022-08-07T17:04:10.261Z,28.59
2022-08-07T17:07:04.081Z,28.43
2022-08-07T17:10:07.007Z,28.37
2022-08-07T17:12:52.972Z,28.23
2022-08-07T17:16:02.594Z,27.98
2022-08-07T17:18:38.814Z,27.77
2022-08-07T17:21:22.785Z,27.67
2022-08-07T17:24:40.208Z,27.51
2022-08-07T17:27:32.774Z,27.32
2022-08-07T17:30:14.011Z,27.17
2022-08-07T17:34:09.814Z,26.91
2022-08-07T17:36:32.974Z,26.70
2022-08-07T17:39:58.206Z,26.61
2022-08-07T17:42:59.383Z,26.43
2022-08-07T17:45:30.198Z,26.25
2022-08-07T17:48:30.999Z,26.09
2022-08-07T17:51:21.572Z,25.89
2022-08-07T17:54:14.298Z,25.76
2022-08-07T17:57:56.197Z,25.49
2022-08-07T18:00:34.462Z,25.34
2022-08-07T18:04:03.655Z,25.23
2022-08-07T18:06:36.872Z,25.14
2022-08-07T18:09:10.266Z,25.06
2022-08-07T18:12:28.671Z,24.92
2022-08-07T18:15:12.411Z,24.76
2022-08-07T18:18:46.849Z,24.58
2022-08-07T18:21:51.453Z,24.35
2022-08-07T18:24:33.862Z,24.11
2022-08-07T18:27:23.610Z,23.99
2022-08-07T18:30:32.998Z,23.82
2022-08-07T18:33:15.226Z,23.67
2022-08-07T18:36:08.030Z,23.47
2022-08-07T18:40:06.518Z,23.37
2022-08-07T18:42:21.507Z,23.20
2022-08-07T18:45:42.928Z,23.04
2022-08-07T18:50:05.311Z,22.88
2022-08-07T18:52:34.674Z,22.75
2022-08-07T18:55:40.698Z,22.64
2022-08-07T18:58:26.298Z,22.55
2022-08-07T19:02:19.190Z,22.56
2022-08-07T19:04:59.619Z,22.47
2022-08-07T19:07:51.707Z,22.34
2022-08-07T19:10:51.467Z,22.22
2022-08-07T19:13:40.523Z,22.14
2022-08-07T19:17:01.278Z,22.02
2022-08-07T19:19:50.823Z,21.92
2022-08-07T19:22:34.690Z,21.85
2022-08-07T19:25:06.403Z,21.73
2022-08-07T19:28:56.655Z,21.61
2022-08-07T19:31:03.180Z,21.37
2022-08-07T19:33:33.309Z,21.00
2022-08-07T19:36:08.823Z,20.77
2022-08-07T19:38:52.522Z,20.44
2022-08-07T19:41:39.166Z,20.26
2022-08-07T19:44:34.678Z,20.10
2022-08-07T19:47:07.467Z,19.76
2022-08-07T19:49:57.193Z,19.61
2022-08-07T19:52:31.818Z,19.40
2022-08-07T19:55:11.542Z,19.50
2022-08-07T19:58:02.927Z,19.27
2022-08-07T20:00:34.741Z,19.16
2022-08-07T20:03:34.976Z,19.14
2022-08-07T20:06:04.855Z,19.08
2022-08-07T20:08:48.940Z,19.00
2022-08-07T20:12:22.150Z,18.94
2022-08-07T20:14:54.104Z,18.82
2022-08-07T20:17:31.659Z,18.67
2022-08-07T20:20:15.742Z,18.57
2022-08-07T20:22:56.167Z,18.29
2022-08-07T20:25:40.348Z,18.31
2022-08-07T20:28:19.005Z,18.26
2022-08-07T20:30:53.101Z,18.14
2022-08-07T20:33:38.149Z,18.14
2022-08-07T20:36:09.087Z,18.02
2022-08-07T20:38:59.858Z,17.92
2022-08-07T20:41:34.132Z,17.87
2022-08-07T20:44:38.298Z,17.75
2022-08-07T20:47:11.599Z,17.73
2022-08-07T20:49:58.976Z,17.60
2022-08-07T20:52:51.832Z,17.39
2022-08-07T20:55:23.645Z,16.87
2022-08-07T20:58:03.994Z,17.04
2022-08-07T21:00:46.606Z,17.05
2022-08-07T21:03:23.306Z,17.15
2022-08-07T21:06:01.360Z,17.16
2022-08-07T21:09:24.242Z,17.04
2022-08-07T21:11:57.352Z,17.05
2022-08-07T21:14:48.485Z,17.02
2022-08-07T21:18:02.345Z,16.89
2022-08-07T21:20:33.187Z,16.76
2022-08-07T21:23:27.761Z,16.58
2022-08-07T21:26:03.803Z,16.26
2022-08-07T21:28:49.528Z,15.94
2022-08-07T21:32:41.582Z,15.93
2022-08-07T21:35:11.436Z,15.70
2022-08-07T21:38:19.304Z,15.32
2022-08-07T21:41:22.779Z,15.41
2022-08-07T21:44:01.572Z,15.56
2022-08-07T21:46:49.631Z,15.35
2022-08-07T21:49:40.738Z,15.30
2022-08-07T21:53:08.708Z,15.74
2022-08-07T21:56:16.731Z,15.81
2022-08-07T22:00:02.727Z,15.30
2022-08-07T22:02:41.727Z,14.90
2022-08-07T22:05:21.978Z,14.75
2022-08-07T22:08:10.540Z,15.12
2022-08-07T22:10:42.420Z,14.90
2022-08-07T22:13:16.980Z,15.12
2022-08-07T22:16:42.255Z,14.91
2022-08-07T22:19:39.020Z,14.49
2022-08-07T22:22:32.757Z,14.75
2022-08-07T22:25:13.382Z,14.75
2022-08-07T22:28:07.449Z,14.69
2022-08-07T22:31:45.183Z,14.78
2022-08-07T22:34:28.907Z,14.68
2022-08-07T22:37:14.971Z,14.82
2022-08-07T22:40:10.788Z,14.87
2022-08-07T22:42:44.330Z,14.87
2022-08-07T22:46:04.246Z,15.03
2022-08-07T22:48:54.780Z,15.13
2022-08-07T22:51:17.612Z,15.18
2022-08-07T22:54:20.199Z,15.20
2022-08-07T22:57:17.017Z,15.24
2022-08-07T22:59:57.382Z,15.26
2022-08-07T23:03:03.685Z,15.25
2022-08-07T23:06:15.459Z,15.22
2022-08-07T23:10:04.474Z,15.27
2022-08-07T23:12:40.218Z,15.29
2022-08-07T23:16:05.401Z,15.25
2022-08-07T23:19:14.006Z,15.27
2022-08-07T23:22:01.364Z,15.26
2022-08-07T23:24:35.198Z,15.22
2022-08-07T23:27:37.774Z,15.17
2022-08-07T23:30:43.315Z,15.07
2022-08-07T23:34:34.210Z,15.06
2022-08-07T23:36:46.774Z,15.06
2022-08-07T23:39:55.469Z,15.07
2022-08-07T23:43:17.542Z,15.07
2022-08-07T23:46:33.748Z,15.07
2022-08-07T23:49:50.117Z,14.94
2022-08-07T23:52:58.252Z,14.63
2022-08-07T23:55:52.931Z,14.32
2022-08-07T23:58:47.699Z,13.97
